IVAO ES Tour IFR-A 2013 Etapa 22

IVAO ES Tour IFR-A 2013 Etapa 22

Santander ( LEXJ ) – Almería ( LEAM )

Datos generales del vuelo
 Fecha 11-12-2013  Avión  B737-800 winglets
 Ruta BLV UN867 DGO UN725 VASUM UN857 BAN UN10 CJN UM143 RISPO  Nivel de vuelo FL350
 Origen LEXJ  Destino LEAM
 Velocidad M0.790  Distancia 550Nm
 Distancia real 400Nm ETE 01:15
 ETA 18:50Z  FOB 02:35
 Hora salida 17:30Z Hora llegada 18:55Z
 Pax 145 TOW 68470Kg
 MTOW  78471Kg Fuel 7832Kg
 Fuel utilizado 4105Kg ZFW 60637Kg
Peso carga 7832Kg Peso pasaje 11358Kg
V1 132Knots Vr 142Knots
 V2 151Knots  Vref 148Knots
 Velocidad vertical toma
128,5 ft/m  

 

Datos LEXJ
Metar: LEXJ 111700Z 21012G24KT 170V250 CAVOK 17/M05 Q1023
Pista Activa: 29
Salida: BLV3R

Datos LEAM

Metar: LEAM 111830Z 04010KT 9999 FEW030 15/08 Q1030
Pista Activa: 25
Llegada: RISP1C
App: ILS 25 transición NIDON

IVAO ES Tour IFR-A 2013 Etapa 21

IVAO ES Tour IFR-A 2013 Etapa 21

Jerez ( LEJR ) – Santander ( LEXJ )

Datos generales del vuelo
 Fecha 11-12-2013  Avión  B737-800 winglets
 Ruta HIJ UZ230 TLD UN858 DGO UN867 BLV  Nivel de vuelo FL340
 Origen LEJR  Destino LEXJ
 Velocidad M0.785  Distancia 465Nm
 Distancia real 413Nm ETE 01:05
 ETA 08:25Z  FOB 02:35
 Hora salida 07:15Z Hora llegada 08:35Z
 Pax 145 TOW 65833Kg
 MTOW  78471Kg Fuel 6109Kg
 Fuel utilizado 3953Kg ZFW 59722Kg
Peso carga 7371Kg Peso pasaje 10938Kg
V1 128Knots Vr 138Knots
 V2 148Knots  Vref 145Knots
 Velocidad vertical toma
410,77 ft/m  

 

Datos LEJR

Metar: LEJR 110700Z 20005KT 140V240 CAVOK 07/05 Q1025
Pista Activa:  02
Salida: HIJ1V

Datos LEXJ

Metar: LEXJ 110800Z 20013G28KT 150V300 CAVOK 15/M05 Q1023
Pista Activa: 29
Llegada: BLV1E
App: ILSL 29 transición AMPUR